Bad Mitterndorf, Austria
Current Conditions -  °F | °C
As of 6:50 AM on Saturday 20 Dec 2014 (Local Time) from LOXZ Reporting Station
Few Clouds Few Clouds  
Wind Chill: 28°   Ceiling: Unl
Heat Index: 28°   Visibility: 9mi
Dew Point: 28°   Wind: 2mph
Humidity: 100%   Direction: NA
Pressure: 30.12"   Gusts: NA
Location:  47.56°N, 13.93°E
Report Text: LOXZ 200550Z VRB02KT 15KM FEW050SC M02/M02 Q1020 RMK FEW
Loading
Personal Weather Stations






























Interactive Weather Map New forecast layout! Learn more

10-Day Weather Forecast

Advertisements
Track Severe Weather on mobile